Time;durP1;ratioP1;P1;durP2;ratioP2;P2;SDS_P1;SDS_P2;PMS_P1;PMS_P2;Temp;Humidity;BMP_temperature;BMP_pressure;BME280_temperature;BME280_humidity;BME280_pressure;Samples;Min_cycle;Max_cycle;Signal;HPM_P1;HPM_P2
2023/09/15 00:02:25;;;;;;;5.25;2.15;;;;;;;12.82;62.04;100991.41;20632268;28;20236;-81
2023/09/15 00:12:26;;;;;;;4.63;1.70;;;;;;;12.52;62.39;100989.47;20644945;28;20526;-87
2023/09/15 00:22:29;;;;;;;6.03;2.30;;;;;;;12.58;63.16;100989.03;20633316;28;20222;-87
2023/09/15 00:32:31;;;;;;;4.70;1.60;;;;;;;12.16;64.08;100987.63;20631498;28;20634;-90
2023/09/15 00:42:34;;;;;;;7.20;2.23;;;;;;;12.34;63.75;100985.75;20611488;28;20246;-90
2023/09/15 00:52:36;;;;;;;4.90;1.83;;;;;;;12.53;62.63;100975.03;20615196;28;20655;-83
2023/09/15 01:02:40;;;;;;;5.20;2.67;;;;;;;12.74;61.39;100958.31;20622375;28;20237;-90
2023/09/15 01:12:42;;;;;;;3.63;2.27;;;;;;;12.37;62.83;100958.84;20626197;28;20207;-89
2023/09/15 01:23:09;;;;;;;4.90;2.40;;;;;;;12.22;63.13;100952.47;20622144;28;20325;-87
2023/09/15 01:33:13;;;;;;;8.47;2.30;;;;;;;12.12;63.68;100941.47;20613714;28;20206;-83
2023/09/15 01:43:15;;;;;;;4.10;2.17;;;;;;;12.06;63.66;100931.50;20596798;28;20520;-84
2023/09/15 01:53:18;;;;;;;5.43;2.10;;;;;;;11.88;64.19;100941.84;20614430;28;20289;-90
2023/09/15 02:03:20;;;;;;;3.37;2.00;;;;;;;11.82;64.16;100943.16;20606717;28;20682;-80
2023/09/15 02:13:23;;;;;;;5.27;2.10;;;;;;;11.80;64.15;100945.47;20623316;28;20204;-82
2023/09/15 02:23:25;;;;;;;3.30;1.60;;;;;;;11.67;64.44;100939.91;20630653;28;20221;-82
2023/09/15 02:33:28;;;;;;;5.82;2.50;;;;;;;12.01;63.44;100931.63;20619903;28;20214;-82
2023/09/15 02:43:29;;;;;;;2.33;1.90;;;;;;;11.86;63.65;100926.41;20619997;28;20222;-85
2023/09/15 02:53:33;;;;;;;4.57;2.37;;;;;;;11.42;64.88;100925.28;20654921;28;20285;-89
2023/09/15 03:03:34;;;;;;;4.30;2.37;;;;;;;11.59;63.91;100918.09;20600481;28;20248;-89
2023/09/15 03:13:37;;;;;;;4.43;2.40;;;;;;;11.46;64.41;100917.00;20600318;28;20499;-91
2023/09/15 03:23:39;;;;;;;6.23;2.07;;;;;;;11.59;63.45;100912.47;20602900;28;20304;-87
2023/09/15 03:33:42;;;;;;;4.60;2.60;;;;;;;11.62;63.42;100892.09;20615349;28;20210;-83
2023/09/15 03:43:44;;;;;;;6.00;3.27;;;;;;;11.34;64.29;100900.66;20607137;28;20250;-93
2023/09/15 03:53:47;;;;;;;5.53;2.93;;;;;;;11.18;64.92;100894.56;20610790;28;20216;-85
2023/09/15 04:03:49;;;;;;;3.03;2.20;;;;;;;11.51;63.75;100881.06;20604391;28;20238;-91
2023/09/15 04:13:53;;;;;;;4.97;2.53;;;;;;;11.21;64.49;100885.50;20603239;28;20293;-92
2023/09/15 04:23:55;;;;;;;3.93;2.40;;;;;;;11.01;64.57;100887.97;20612447;28;20241;-92
2023/09/15 04:33:58;;;;;;;4.47;2.40;;;;;;;10.98;64.74;100894.25;20618580;28;20281;-86
2023/09/15 04:43:59;;;;;;;4.33;2.37;;;;;;;11.23;63.73;100890.81;20609088;28;20324;-81
2023/09/15 04:54:02;;;;;;;4.57;2.30;;;;;;;10.75;65.36;100882.97;20605183;28;20202;-79
2023/09/15 05:04:05;;;;;;;5.17;3.00;;;;;;;10.86;64.56;100880.72;20611681;28;20226;-82
2023/09/15 05:14:08;;;;;;;4.13;2.40;;;;;;;10.74;64.89;100891.72;20606164;28;20198;-87
2023/09/15 05:24:09;;;;;;;6.83;2.50;;;;;;;10.80;64.57;100891.28;20599166;28;20314;-87
2023/09/15 05:34:13;;;;;;;5.30;2.53;;;;;;;10.87;65.01;100888.03;20610783;28;20293;-86
2023/09/15 05:44:15;;;;;;;5.90;2.40;;;;;;;10.71;65.36;100890.34;20601393;28;20309;-88
2023/09/15 05:54:19;;;;;;;4.17;2.60;;;;;;;10.88;65.21;100900.13;20593026;28;20544;-83
2023/09/15 06:04:21;;;;;;;6.80;2.73;;;;;;;11.04;64.95;100899.47;20615654;28;20531;-85
2023/09/15 06:14:24;;;;;;;6.30;2.80;;;;;;;11.35;65.09;100899.50;20611999;28;20293;-88
2023/09/15 06:24:26;;;;;;;6.70;3.23;;;;;;;11.52;65.08;100894.00;20602050;28;20226;-87
2023/09/15 06:34:29;;;;;;;5.18;2.75;;;;;;;12.10;63.61;100884.53;20599915;28;20286;-85
2023/09/15 06:44:30;;;;;;;5.93;2.57;;;;;;;12.49;62.64;100889.34;20611880;28;20306;-88
2023/09/15 06:54:33;;;;;;;4.47;2.83;;;;;;;12.66;62.65;100871.59;20603616;28;20270;-84
2023/09/15 07:04:35;;;;;;;3.33;2.30;;;;;;;12.94;61.96;100872.97;20587772;28;20599;-90
2023/09/15 07:14:38;;;;;;;4.43;2.50;;;;;;;13.07;61.30;100868.31;20594626;28;20301;-87
2023/09/15 07:24:41;;;;;;;6.70;2.60;;;;;;;13.62;60.39;100865.59;20599751;28;20256;-87
2023/09/15 07:34:44;;;;;;;3.80;2.38;;;;;;;13.83;58.90;100873.34;20617019;28;20198;-84
2023/09/15 07:44:46;;;;;;;7.23;2.70;;;;;;;14.40;59.30;100862.47;20617170;28;20659;-80
2023/09/15 07:54:50;;;;;;;8.73;2.80;;;;;;;14.74;59.41;100858.56;20609967;28;20217;-86
2023/09/15 08:04:52;;;;;;;4.60;2.03;;;;;;;14.89;58.21;100840.97;20610807;28;20289;-86
2023/09/15 08:14:55;;;;;;;6.22;2.70;;;;;;;15.51;55.73;100840.06;20597554;28;20218;-86
2023/09/15 08:24:58;;;;;;;8.38;3.47;;;;;;;15.84;54.84;100836.38;20603624;28;20228;-88
2023/09/15 08:35:05;;;;;;;6.80;3.28;;;;;;;15.85;56.61;100836.00;20612026;28;20198;-85
2023/09/15 08:45:08;;;;;;;7.43;2.88;;;;;;;16.55;54.31;100836.75;20605456;28;20284;-88
2023/09/15 08:55:11;;;;;;;6.28;2.97;;;;;;;16.86;50.99;100834.09;20605713;28;20212;-82
2023/09/15 09:05:13;;;;;;;4.53;2.03;;;;;;;17.37;50.96;100816.50;20597538;28;20325;-84
2023/09/15 09:15:17;;;;;;;3.20;1.52;;;;;;;17.36;49.45;100817.69;20606062;28;20453;-88
2023/09/15 09:25:33;;;;;;;4.30;1.27;;;;;;;17.05;47.83;100809.84;20589824;28;20222;-89
2023/09/15 09:35:36;;;;;;;2.88;1.40;;;;;;;17.81;46.42;100801.03;20596825;28;20202;-88
2023/09/15 09:45:38;;;;;;;3.45;1.15;;;;;;;17.42;43.93;100790.59;20602377;28;20226;-80
2023/09/15 09:55:44;;;;;;;5.18;1.30;;;;;;;17.58;43.84;100786.59;20596800;28;20234;-88
2023/09/15 10:05:46;;;;;;;3.78;1.60;;;;;;;18.24;42.82;100779.34;20599397;28;20602;-88
2023/09/15 10:15:49;;;;;;;3.22;1.23;;;;;;;18.76;41.02;100772.41;20596327;28;20519;-80
2023/09/15 10:25:53;;;;;;;4.13;1.20;;;;;;;18.70;43.14;100763.34;20597184;28;20309;-88
2023/09/15 10:36:03;;;;;;;3.75;1.10;;;;;;;19.05;41.11;100760.41;20594559;28;20427;-86
2023/09/15 10:46:06;;;;;;;4.55;1.30;;;;;;;18.40;39.82;100748.78;20591181;28;20245;-87
2023/09/15 10:56:10;;;;;;;2.15;1.10;;;;;;;19.36;39.76;100744.28;20594013;28;20209;-82
2023/09/15 11:06:13;;;;;;;4.30;1.58;;;;;;;19.38;38.94;100731.31;20600112;28;20252;-86
2023/09/15 11:16:16;;;;;;;2.53;0.98;;;;;;;19.47;38.95;100722.50;20591705;28;20202;-81
2023/09/15 11:26:18;;;;;;;5.45;1.20;;;;;;;19.62;40.49;100698.69;20601927;28;20226;-85
2023/09/15 11:36:22;;;;;;;4.43;1.27;;;;;;;20.40;37.83;100700.75;20622935;28;20567;-86
2023/09/15 11:46:24;;;;;;;3.40;1.40;;;;;;;20.13;38.19;100678.34;20605478;28;20374;-88
2023/09/15 11:56:27;;;;;;;4.68;1.25;;;;;;;20.04;36.92;100668.00;20610190;28;20289;-80
2023/09/15 12:06:29;;;;;;;1.95;0.80;;;;;;;20.62;36.84;100667.59;20612761;28;20269;-88
2023/09/15 12:16:32;;;;;;;2.28;1.08;;;;;;;20.42;38.10;100659.53;20605807;28;20198;-86
2023/09/15 12:26:34;;;;;;;2.53;0.90;;;;;;;20.47;36.82;100651.44;20595440;28;20190;-81
2023/09/15 12:36:38;;;;;;;2.00;1.17;;;;;;;21.28;34.52;100640.13;20607354;28;20195;-84
2023/09/15 12:46:40;;;;;;;2.70;0.85;;;;;;;20.77;36.12;100642.03;20622050;28;20194;-85
2023/09/15 12:56:43;;;;;;;2.05;1.00;;;;;;;20.64;36.89;100628.00;20617716;28;20203;-91
2023/09/15 13:06:45;;;;;;;2.00;0.88;;;;;;;21.32;35.18;100617.25;20610836;28;20318;-91
2023/09/15 13:16:48;;;;;;;2.95;1.48;;;;;;;19.71;38.85;100607.91;20606266;28;20203;-85
2023/09/15 13:26:49;;;;;;;4.00;0.90;;;;;;;21.57;36.02;100577.34;20605751;28;20572;-90
2023/09/15 13:36:53;;;;;;;1.77;1.02;;;;;;;21.17;37.69;100564.78;20597045;28;20194;-83
2023/09/15 13:46:56;;;;;;;3.10;1.25;;;;;;;21.40;35.66;100565.38;20594872;28;20203;-80
2023/09/15 13:56:59;;;;;;;0.73;0.60;;;;;;;21.79;33.75;100550.53;20589315;28;20308;-85
2023/09/15 14:07:04;;;;;;;0.93;0.88;;;;;;;21.24;33.96;100541.94;20600254;28;20198;-88
2023/09/15 14:17:07;;;;;;;1.35;0.73;;;;;;;21.49;35.61;100524.13;20611565;28;20226;-84
2023/09/15 14:27:09;;;;;;;1.83;1.63;;;;;;;21.22;34.04;100532.09;20598522;28;20237;-83
2023/09/15 14:37:14;;;;;;;6.13;2.17;;;;;;;22.29;32.59;100522.09;20617193;28;20230;-90
2023/09/15 14:47:16;;;;;;;1.40;1.10;;;;;;;21.61;33.91;100520.91;20596613;28;20210;-91
2023/09/15 14:57:19;;;;;;;3.42;1.95;;;;;;;21.98;34.40;100512.94;20592033;28;20230;-86
2023/09/15 15:07:21;;;;;;;3.17;1.70;;;;;;;21.40;34.48;100513.03;20597181;28;20695;-80
2023/09/15 15:17:25;;;;;;;2.20;1.52;;;;;;;20.95;35.68;100512.25;20584431;28;20229;-89
2023/09/15 15:27:27;;;;;;;1.08;0.90;;;;;;;21.18;34.86;100514.03;20586126;28;20273;-81
2023/09/15 15:37:30;;;;;;;1.80;1.00;;;;;;;21.65;35.27;100498.84;20591987;28;20674;-80
2023/09/15 15:47:32;;;;;;;1.85;1.05;;;;;;;21.17;35.46;100487.50;20583764;28;20194;-80
2023/09/15 15:57:35;;;;;;;1.70;0.88;;;;;;;20.81;36.96;100488.41;20592534;28;20598;-79
2023/09/15 16:07:37;;;;;;;1.48;1.33;;;;;;;21.41;36.35;100484.00;20586307;28;20226;-80
2023/09/15 16:17:41;;;;;;;5.88;1.20;;;;;;;21.70;36.15;100476.38;20594482;28;20237;-82
2023/09/15 16:27:43;;;;;;;2.67;1.17;;;;;;;21.65;37.82;100470.22;20601759;28;20202;-81
2023/09/15 16:37:46;;;;;;;2.10;1.20;;;;;;;21.22;38.88;100474.88;20588741;28;20313;-79
2023/09/15 16:47:48;;;;;;;3.00;2.22;;;;;;;21.15;41.43;100478.47;20599506;28;20250;-83
2023/09/15 16:57:54;;;;;;;2.92;1.70;;;;;;;20.83;42.21;100469.63;20605422;28;20242;-84
2023/09/15 17:07:58;;;;;;;3.72;2.63;;;;;;;20.61;43.21;100474.38;20597794;28;20280;-84
2023/09/15 17:18:01;;;;;;;3.45;1.20;;;;;;;20.19;45.37;100473.88;20623124;28;20225;-84
2023/09/15 17:28:03;;;;;;;2.92;1.23;;;;;;;19.59;47.87;100474.78;20594885;28;20198;-85
2023/09/15 17:38:07;;;;;;;4.47;1.70;;;;;;;19.33;50.97;100481.34;20611537;28;20618;-85
2023/09/15 17:48:08;;;;;;;2.53;1.63;;;;;;;19.26;50.06;100477.50;20612617;28;20610;-82
2023/09/15 17:58:12;;;;;;;3.50;2.17;;;;;;;19.09;51.15;100473.19;20593467;28;20269;-82
2023/09/15 18:08:14;;;;;;;6.22;2.60;;;;;;;18.50;55.17;100476.63;20587929;28;20216;-82
2023/09/15 18:18:18;;;;;;;4.55;2.47;;;;;;;18.71;53.84;100474.19;20602349;28;20611;-85
2023/09/15 18:28:21;;;;;;;4.55;2.95;;;;;;;17.93;58.17;100486.91;20591460;28;20209;-85
2023/09/15 18:38:24;;;;;;;4.50;2.65;;;;;;;17.93;57.78;100490.59;20591004;28;20225;-82
2023/09/15 18:48:26;;;;;;;5.93;2.80;;;;;;;17.63;58.29;100492.38;20577844;28;20234;-80
2023/09/15 18:58:29;;;;;;;4.20;2.40;;;;;;;17.74;58.12;100493.44;20594873;28;20248;-83
2023/09/15 19:08:31;;;;;;;4.57;2.88;;;;;;;17.59;58.89;100491.47;20592129;28;20209;-82
2023/09/15 19:18:34;;;;;;;4.05;2.97;;;;;;;17.02;60.75;100503.53;20584851;28;20312;-80
2023/09/15 19:28:36;;;;;;;4.53;3.55;;;;;;;17.96;56.74;100482.50;20605181;28;20206;-84
2023/09/15 19:38:40;;;;;;;8.90;3.58;;;;;;;17.28;59.02;100485.91;20595544;28;20222;-83
2023/09/15 19:48:42;;;;;;;6.82;3.42;;;;;;;17.90;56.97;100474.25;20608775;28;20656;-79
2023/09/15 19:58:45;;;;;;;4.63;3.80;;;;;;;17.65;57.40;100481.44;20595506;28;20576;-82
2023/09/15 20:08:48;;;;;;;4.75;3.53;;;;;;;17.17;58.74;100479.91;20608504;28;20205;-81
2023/09/15 20:18:51;;;;;;;5.00;3.08;;;;;;;17.49;57.48;100480.69;20589199;28;20690;-80
2023/09/15 20:28:55;;;;;;;7.65;4.80;;;;;;;17.44;57.43;100469.59;20598549;28;20491;-83
2023/09/15 20:38:59;;;;;;;7.03;4.00;;;;;;;17.44;56.69;100466.72;20606415;28;20232;-79
2023/09/15 20:49:03;;;;;;;6.28;3.55;;;;;;;17.53;55.82;100459.66;20610803;28;20209;-79
2023/09/15 20:59:06;;;;;;;5.70;3.20;;;;;;;17.29;55.21;100461.91;20525270;28;1632688;-80
2023/09/15 21:09:08;;;;;;;3.33;2.60;;;;;;;17.10;56.33;100457.81;20600479;28;20195;-84
2023/09/15 21:19:12;;;;;;;5.15;2.78;;;;;;;16.62;57.41;100463.94;20617025;28;20223;-85
2023/09/15 21:29:13;;;;;;;7.88;4.25;;;;;;;16.87;56.87;100459.72;20606667;28;20596;-84
2023/09/15 21:39:17;;;;;;;5.25;2.58;;;;;;;16.90;57.88;100476.00;20600289;28;20250;-82
2023/09/15 21:49:19;;;;;;;7.63;3.17;;;;;;;16.27;59.01;100472.31;20608646;28;20602;-85
2023/09/15 21:59:22;;;;;;;4.03;2.80;;;;;;;16.70;58.09;100468.59;20617058;28;20265;-85
2023/09/15 22:09:24;;;;;;;4.57;3.03;;;;;;;16.59;58.48;100468.34;20603640;28;20220;-82
2023/09/15 22:19:27;;;;;;;6.45;3.55;;;;;;;16.37;59.64;100457.59;20605025;28;20317;-81
2023/09/15 22:29:29;;;;;;;4.95;3.35;;;;;;;16.21;60.30;100470.94;20616722;28;20639;-82
2023/09/15 22:39:35;;;;;;;7.20;3.08;;;;;;;15.96;61.07;100470.25;20613410;28;20226;-84
2023/09/15 22:49:38;;;;;;;4.80;2.72;;;;;;;15.85;62.17;100454.94;20606862;28;20519;-81
2023/09/15 22:59:42;;;;;;;7.78;2.85;;;;;;;15.96;61.47;100436.19;20600058;28;20236;-81
2023/09/15 23:09:44;;;;;;;4.53;2.88;;;;;;;14.98;65.83;100435.63;20613365;28;20265;-84
2023/09/15 23:19:49;;;;;;;7.03;3.22;;;;;;;15.46;63.91;100431.88;20593760;28;20321;-83
2023/09/15 23:29:51;;;;;;;8.00;3.70;;;;;;;15.46;64.08;100423.34;20587518;28;20540;-83
2023/09/15 23:39:54;;;;;;;4.60;3.70;;;;;;;15.34;64.26;100407.22;20605540;28;20221;-82
2023/09/15 23:49:55;;;;;;;5.93;4.32;;;;;;;15.36;64.18;100406.84;20594067;28;20532;-83
2023/09/15 23:59:58;;;;;;;6.70;4.78;;;;;;;15.29;65.03;100413.16;20603148;28;20321;-83
